Bei Facebook empfehlenBei Twitter postenGoogle plusPinterest

Das Wetter im Erzgebirge am 17.04.2017

Wetter und Klima am 17.04.2017 Holzhau im Erzgebirge (630m ü.NN)
Letzte gemessene Temperatur und Uhrzeit der Messung23:45:00 Uhr0.50 °C
Temperatur (Maximum / Höchstwert) und Uhrzeit der Messung14:00:00 Uhr6.00 °C
Temperatur (Minimum / Tiefstwert) und Uhrzeit der Messung21:00:00-1.10 °C
Errechneter Absolutwert der Temperaturschwankungen zwischen Tmin und Tmax des Tages7.10 K
Errechnete Tagesmitteltemperatur1.62917 °C
Gesamt - Niederschlag des Tages (in flüssiger Form)5.70 Liter / m²
Luftdruck (Maximum / Höchstwert) und Zeitpunkt der Messung00:30:00 Uhr1012.50 hPa
Luftdruck (Minimum / Tiefstwert) und Zeitpunkt der Messung19:00:00 Uhr1008.90 hPa
Errechneter Absolutwert der Luftdruckschwankungen des Tages3.60 hPa
Höchste gemessene Windgeschwindigkeit und Uhrzeit der Messung17:45:00 Uhr3.24 km/h
Errechnete Windhäufigkeit in Relation zu den Messwerten des Tages3.12500 %
Niedrigste Windkühle (Windchill) und Zeitpunkt der Messung21:00:00 Uhr-1.10 °C
Taupunkt (Maximum / Höchstwert) und Uhrzeit der Messung14:00:00 Uhr3.30 °C
Taupunkt (Minimum / Tiefstwert) und Uhrzeit der Messung20:45:00-3.00 °C
Anzahl der automatisch eingelesenen Messwerte 96

Detaillierte Wetter- und Klima- Messwerte für den 17.04.2017 in Holzhau im Erzgebirge (630m ü.NN)
ZeitTemperaturLuftdruckRel. LuftfeuchteWindWindrichtungWindchillTaupunktNiederschlag l/m²
23:45:000.50 °C1011.00 hPa92.00 %-0.60 °C5.70
23:30:000.60 °C1011.10 hPa92.00 %-0.50 °C5.70
23:15:000.60 °C1010.70 hPa92.00 %-0.50 °C5.70
23:00:000.60 °C1010.70 hPa92.00 %-0.50 °C5.70
22:45:000.60 °C1010.70 hPa92.00 %-0.50 °C5.70
22:30:000.60 °C1010.60 hPa92.00 %-0.50 °C5.70
22:15:000.50 °C1010.60 hPa92.00 %-0.60 °C5.70
22:00:000.30 °C1010.60 hPa91.00 %-1.00 °C5.70
21:45:00-0.10 °C1010.70 hPa91.00 %-1.50 °C5.70
21:30:00-0.20 °C1010.60 hPa91.00 %-1.60 °C5.70
21:15:00-0.60 °C1010.60 hPa90.00 %-2.20 °C5.70
21:00:00-1.10 °C1010.30 hPa89.00 %-2.90 °C5.70
20:45:00-1.10 °C1009.90 hPa88.00 %-3.00 °C5.70
20:30:00-0.60 °C1009.80 hPa87.00 %-2.70 °C5.70
20:15:000.10 °C1009.60 hPa86.00 %-2.00 °C5.70
20:00:000.80 °C1009.50 hPa86.00 %-1.30 °C5.70
19:45:001.60 °C1009.40 hPa85.00 %-0.60 °C5.70
19:30:002.40 °C1009.20 hPa86.00 %0.30 °C5.70
19:15:002.50 °C1009.20 hPa86.00 %0.40 °C5.70
19:00:002.60 °C1008.90 hPa85.00 %0.30 °C5.70
18:45:002.50 °C1009.00 hPa86.00 %0.40 °C5.70
18:30:002.30 °C1009.20 hPa86.00 %0.20 °C5.70
18:15:002.50 °C1009.20 hPa85.00 %0.20 °C5.70
18:00:002.80 °C1009.10 hPa86.00 %0.70 °C5.70
17:45:002.80 °C1009.10 hPa83.00 %3.24 km/hSO2.80 °C0.20 °C5.70
17:30:003.60 °C1009.00 hPa82.00 %0.80 °C5.70
17:15:004.90 °C1009.10 hPa80.00 %1.70 °C5.70
17:00:005.10 °C1008.90 hPa80.00 %1.90 °C5.70
16:45:005.10 °C1009.00 hPa80.00 %1.90 °C5.70
16:30:005.10 °C1009.20 hPa82.00 %2.30 °C5.70
16:15:004.60 °C1009.00 hPa84.00 %2.10 °C5.70
16:00:003.90 °C1009.00 hPa87.00 %1.90 °C5.70
15:45:003.10 °C1009.30 hPa88.00 %1.30 °C5.70
15:30:002.80 °C1009.50 hPa88.00 %1.00 °C5.70
15:15:002.50 °C1009.60 hPa87.00 %0.60 °C5.70
15:00:002.50 °C1009.60 hPa86.00 %0.40 °C5.70
14:45:002.90 °C1009.70 hPa85.00 %0.60 °C5.18
14:30:003.70 °C1009.70 hPa83.00 %1.80 km/hNW3.70 °C1.10 °C5.18
14:15:005.40 °C1009.70 hPa80.00 %2.20 °C5.18
14:00:006.00 °C1009.50 hPa83.00 %3.30 °C5.18
13:45:005.10 °C1009.70 hPa86.00 %3.00 °C5.18
13:30:004.30 °C1009.80 hPa87.00 %2.30 °C5.18
13:15:003.90 °C1009.80 hPa87.00 %1.90 °C5.18
13:00:003.40 °C1010.00 hPa89.00 %1.80 °C5.18
12:45:002.80 °C1009.90 hPa89.00 %1.20 °C5.18
12:30:002.70 °C1010.20 hPa86.00 %0.60 °C5.18
12:15:003.90 °C1009.90 hPa85.00 %1.44 km/hNNW3.90 °C1.60 °C5.18
12:00:004.40 °C1009.90 hPa87.00 %2.40 °C5.18
11:45:004.30 °C1010.20 hPa89.00 %2.70 °C5.18
11:30:003.60 °C1010.20 hPa91.00 %2.30 °C4.67
11:15:003.40 °C1010.20 hPa93.00 %2.40 °C4.67
11:00:002.60 °C1010.30 hPa92.00 %1.40 °C4.15
10:45:002.80 °C1010.10 hPa93.00 %1.80 °C4.15
10:30:002.40 °C1010.30 hPa94.00 %1.50 °C3.63
10:15:002.10 °C1010.30 hPa94.00 %1.20 °C3.11
10:00:001.60 °C1010.30 hPa94.00 %0.70 °C3.11
09:45:001.10 °C1010.40 hPa94.00 %0.20 °C2.59
09:30:000.90 °C1010.60 hPa94.00 %0.00 °C2.59
09:15:000.90 °C1010.50 hPa94.00 %0.00 °C2.59
09:00:000.80 °C1010.60 hPa94.00 %-0.10 °C2.08
08:45:000.60 °C1010.60 hPa94.00 %-0.30 °C2.08
08:30:000.40 °C1010.60 hPa93.00 %-0.60 °C2.08
08:15:000.40 °C1010.80 hPa93.00 %-0.60 °C1.56
08:00:000.20 °C1010.90 hPa93.00 %-0.80 °C1.56
07:45:000.30 °C1010.90 hPa93.00 %-0.70 °C1.56
07:30:000.20 °C1010.80 hPa93.00 %-0.80 °C1.56
07:15:000.20 °C1010.70 hPa93.00 %-0.80 °C1.56
07:00:000.20 °C1010.70 hPa93.00 %-0.80 °C1.56
06:45:000.20 °C1010.80 hPa93.00 %-0.80 °C1.56
06:30:000.10 °C1010.80 hPa93.00 %-0.90 °C1.56
06:15:000.20 °C1010.80 hPa93.00 %-0.80 °C1.56
06:00:000.20 °C1010.90 hPa92.00 %-0.90 °C1.56
05:45:000.20 °C1010.90 hPa92.00 %-0.90 °C1.56
05:30:000.20 °C1010.80 hPa92.00 %-0.90 °C1.56
05:15:000.10 °C1010.90 hPa92.00 %-1.00 °C1.56
05:00:000.20 °C1011.10 hPa92.00 %-0.90 °C1.56
04:45:000.30 °C1011.10 hPa92.00 %-0.80 °C1.56
04:30:000.50 °C1011.20 hPa93.00 %-0.50 °C1.56
04:15:000.50 °C1011.20 hPa92.00 %-0.60 °C1.56
04:00:000.50 °C1011.30 hPa92.00 %-0.60 °C1.56
03:45:000.50 °C1011.30 hPa92.00 %-0.60 °C1.56
03:30:000.60 °C1011.40 hPa92.00 %-0.50 °C1.04
03:15:000.70 °C1011.50 hPa92.00 %-0.40 °C1.04
03:00:000.70 °C1011.70 hPa92.00 %-0.40 °C1.04
02:45:000.70 °C1011.70 hPa92.00 %-0.40 °C1.04
02:30:000.70 °C1011.90 hPa92.00 %-0.40 °C1.04
02:15:000.60 °C1012.00 hPa92.00 %-0.50 °C1.04
02:00:000.60 °C1012.20 hPa91.00 %-0.70 °C0.52
01:45:000.60 °C1012.20 hPa91.00 %-0.70 °C0.52
01:30:000.60 °C1012.20 hPa91.00 %-0.70 °C0.52
01:15:000.60 °C1012.30 hPa91.00 %-0.70 °C0.52
01:00:000.50 °C1012.30 hPa91.00 %-0.80 °C0.52
00:45:000.50 °C1012.40 hPa91.00 %-0.80 °C0.52
00:30:000.40 °C1012.50 hPa91.00 %-0.90 °C 
00:15:000.40 °C1012.50 hPa91.00 %-0.90 °C 
00:00:000.30 °C1012.50 hPa91.00 %-1.00 °C 

Permanenter Link zu dieser Seite: Wetter im Erzgebirge am 17.04.2017
Performance-Info: Die Erstellung der Seite / Statistik(en) / Tabelle(n) erforderte 5 Datenbankserver-Abfrage(n) und dauerte 123 Millisekunden. (Dieser Messwert ist von der Gesamt-Auslastung des Servers abhängig.)
Erzgebirge - Wetter | Erzgebirge - Wetter (Mobilgeräte) | Komplette Klimadatenbank